createdAt,value
2018-08-03T00:03:31.801Z,27.30
2018-08-03T00:08:36.549Z,27.10
2018-08-03T00:13:41.468Z,27.20
2018-08-03T00:18:46.150Z,27.20
2018-08-03T00:23:51.337Z,27.30
2018-08-03T00:28:56.350Z,27.20
2018-08-03T00:34:00.913Z,27.00
2018-08-03T00:39:08.130Z,26.90
2018-08-03T00:44:12.919Z,27.00
2018-08-03T00:49:17.726Z,27.00
2018-08-03T00:54:22.403Z,26.80
2018-08-03T00:59:27.144Z,26.70
2018-08-03T01:04:31.791Z,26.80
2018-08-03T01:09:36.566Z,26.80
2018-08-03T01:14:41.129Z,26.70
2018-08-03T01:19:45.693Z,26.50
2018-08-03T01:24:50.749Z,26.50
2018-08-03T01:29:55.414Z,26.30
2018-08-03T01:40:04.184Z,26.30
2018-08-03T01:45:08.879Z,26.30
2018-08-03T01:50:13.547Z,26.30
2018-08-03T01:55:18.298Z,26.30
2018-08-03T02:00:23.036Z,26.30
2018-08-03T02:05:28.675Z,26.20
2018-08-03T02:10:33.589Z,26.20
2018-08-03T02:15:38.278Z,26.10
2018-08-03T02:20:42.725Z,26.10
2018-08-03T02:25:47.333Z,26.10
2018-08-03T02:30:52.198Z,26.00
2018-08-03T02:41:01.084Z,25.90
2018-08-03T02:46:05.767Z,25.90
2018-08-03T02:51:10.449Z,25.90
2018-08-03T02:56:15.977Z,25.80
2018-08-03T03:01:20.826Z,25.90
2018-08-03T03:06:25.849Z,25.80
2018-08-03T03:11:30.502Z,25.80
2018-08-03T03:16:35.058Z,25.70
2018-08-03T03:21:39.623Z,25.60
2018-08-03T03:26:44.906Z,25.60
2018-08-03T03:31:49.594Z,25.50
2018-08-03T03:36:54.393Z,25.50
2018-08-03T03:41:59.189Z,25.40
2018-08-03T03:47:03.751Z,25.50
2018-08-03T03:52:08.431Z,25.40
2018-08-03T03:57:13.052Z,25.40
2018-08-03T04:02:18.157Z,25.40
2018-08-03T04:07:22.842Z,25.30
2018-08-03T04:12:27.604Z,25.30
2018-08-03T04:17:32.200Z,25.30
2018-08-03T04:22:37.002Z,25.30
2018-08-03T04:27:41.685Z,25.30
2018-08-03T04:32:46.493Z,25.30
2018-08-03T04:37:51.175Z,25.30
2018-08-03T04:42:55.983Z,25.30
2018-08-03T04:48:01.016Z,25.50
2018-08-03T04:53:05.695Z,25.50
2018-08-03T04:58:10.495Z,25.50
2018-08-03T05:03:15.415Z,25.60
2018-08-03T05:08:20.223Z,25.70
2018-08-03T05:13:25.019Z,25.70
2018-08-03T05:18:29.599Z,25.80
2018-08-03T05:23:34.384Z,25.90
2018-08-03T05:28:39.189Z,25.90
2018-08-03T05:33:43.886Z,26.10
2018-08-03T05:38:49.525Z,26.30
2018-08-03T05:43:57.098Z,26.50
2018-08-03T05:49:02.968Z,26.70
2018-08-03T05:54:08.244Z,26.90
2018-08-03T06:04:18.091Z,27.30
2018-08-03T06:09:22.885Z,27.40
2018-08-03T06:14:31.593Z,27.70
2018-08-03T06:19:36.327Z,27.70
2018-08-03T06:24:41.248Z,24.60
2018-08-03T06:29:47.099Z,28.40
2018-08-03T06:34:51.690Z,28.70
2018-08-03T06:39:56.376Z,29.10
2018-08-03T06:45:02.974Z,29.40
2018-08-03T06:50:08.509Z,29.40
2018-08-03T06:55:13.304Z,30.00
2018-08-03T07:00:18.103Z,30.30
2018-08-03T07:05:22.785Z,30.90
2018-08-03T07:15:33.108Z,31.50
2018-08-03T07:20:37.851Z,32.00
2018-08-03T07:25:46.199Z,33.70
2018-08-03T07:30:50.883Z,32.40
2018-08-03T07:35:56.035Z,32.40
2018-08-03T07:41:00.597Z,33.20
2018-08-03T07:46:05.405Z,33.50
2018-08-03T07:51:11.891Z,34.40
2018-08-03T07:56:17.167Z,34.90
2018-08-03T08:01:22.093Z,34.90
2018-08-03T08:11:31.458Z,35.70
2018-08-03T08:16:36.254Z,37.20
2018-08-03T08:21:41.180Z,36.70
2018-08-03T08:26:45.992Z,36.30
2018-08-03T08:31:51.496Z,35.10
2018-08-03T08:36:56.585Z,35.60
2018-08-03T08:42:01.347Z,36.90
2018-08-03T08:47:06.501Z,38.10
2018-08-03T08:52:11.192Z,38.50
2018-08-03T08:57:15.984Z,39.50
2018-08-03T09:02:22.111Z,39.90
2018-08-03T09:07:26.828Z,39.70
2018-08-03T09:12:31.603Z,39.70
2018-08-03T09:17:36.513Z,38.70
2018-08-03T09:22:41.328Z,38.40
2018-08-03T09:27:46.145Z,38.40
2018-08-03T09:32:51.108Z,38.10
2018-08-03T09:37:55.841Z,38.20
2018-08-03T09:43:00.422Z,39.80
2018-08-03T09:48:05.332Z,41.00
2018-08-03T09:53:10.020Z,42.00
2018-08-03T09:58:15.774Z,41.20
2018-08-03T10:03:20.461Z,41.70
2018-08-03T10:08:25.252Z,40.40
2018-08-03T10:13:30.076Z,41.30
2018-08-03T10:18:35.705Z,42.00
2018-08-03T10:23:40.994Z,41.50
2018-08-03T10:28:46.019Z,41.30
2018-08-03T10:33:50.942Z,42.20
2018-08-03T10:38:55.757Z,43.20
2018-08-03T10:44:01.149Z,43.60
2018-08-03T10:50:35.059Z,43.40
2018-08-03T10:55:40.048Z,43.50
2018-08-03T11:00:52.270Z,44.70
2018-08-03T11:05:56.959Z,43.30
2018-08-03T11:16:05.958Z,44.90
2018-08-03T11:21:11.118Z,43.70
2018-08-03T11:26:15.920Z,43.80
2018-08-03T11:31:20.765Z,45.20
2018-08-03T11:36:25.525Z,46.10
2018-08-03T11:41:30.336Z,46.20
2018-08-03T11:46:35.051Z,45.50
2018-08-03T11:51:39.813Z,44.00
2018-08-03T11:56:44.509Z,45.00
2018-08-03T12:01:50.034Z,46.00
2018-08-03T12:06:54.699Z,46.90
2018-08-03T12:11:59.737Z,47.10
2018-08-03T12:17:06.375Z,47.50
2018-08-03T12:22:11.997Z,47.80
2018-08-03T12:27:16.902Z,47.00
2018-08-03T12:37:25.669Z,42.60
2018-08-03T12:42:34.193Z,43.70
2018-08-03T12:47:39.590Z,44.80
2018-08-03T12:52:44.426Z,45.90
2018-08-03T12:57:49.076Z,46.50
2018-08-03T13:02:53.759Z,47.10
2018-08-03T13:07:58.592Z,47.10
2018-08-03T13:13:03.426Z,47.70
2018-08-03T13:18:08.067Z,46.80
2018-08-03T13:23:12.848Z,46.70
2018-08-03T13:28:17.652Z,46.70
2018-08-03T13:33:22.338Z,46.50
2018-08-03T13:38:27.129Z,47.10
2018-08-03T13:43:31.937Z,47.80
2018-08-03T13:48:36.736Z,48.60
2018-08-03T13:53:41.778Z,48.10
2018-08-03T13:58:46.954Z,47.40
2018-08-03T14:03:51.772Z,45.90
2018-08-03T14:08:56.542Z,45.40
2018-08-03T14:14:01.591Z,46.70
2018-08-03T14:19:06.626Z,45.50
2018-08-03T14:24:11.557Z,44.90
2018-08-03T14:29:16.227Z,46.10
2018-08-03T14:34:21.049Z,46.60
2018-08-03T14:39:25.971Z,46.70
2018-08-03T14:44:30.993Z,46.30
2018-08-03T14:49:35.679Z,45.70
2018-08-03T14:54:40.359Z,45.40
2018-08-03T14:59:45.398Z,44.60
2018-08-03T15:04:50.206Z,44.80
2018-08-03T15:09:55.003Z,45.20
2018-08-03T15:14:59.924Z,44.60
2018-08-03T15:20:05.445Z,44.30
2018-08-03T15:30:15.570Z,44.10
2018-08-03T15:35:20.238Z,43.60
2018-08-03T15:40:24.898Z,43.10
2018-08-03T15:45:29.639Z,42.90
2018-08-03T15:50:34.379Z,42.70
2018-08-03T15:55:39.210Z,42.40
2018-08-03T16:00:44.223Z,41.60
2018-08-03T16:05:49.032Z,41.90
2018-08-03T16:15:58.264Z,41.50
2018-08-03T16:21:03.191Z,41.40
2018-08-03T16:26:08.708Z,41.50
2018-08-03T16:31:14.230Z,41.10
2018-08-03T16:36:19.161Z,41.00
2018-08-03T16:41:25.404Z,41.10
2018-08-03T16:46:30.344Z,41.10
2018-08-03T16:51:34.996Z,40.80
2018-08-03T16:56:39.816Z,40.60
2018-08-03T17:01:45.687Z,39.30
2018-08-03T17:06:50.606Z,38.20
2018-08-03T17:11:55.529Z,37.80
2018-08-03T17:17:01.053Z,37.60
2018-08-03T17:22:06.047Z,37.30
2018-08-03T17:27:10.791Z,37.10
2018-08-03T17:32:15.571Z,36.80
2018-08-03T17:37:20.500Z,36.60
2018-08-03T17:47:29.381Z,36.40
2018-08-03T17:52:34.538Z,36.20
2018-08-03T17:57:39.228Z,36.00
2018-08-03T18:02:44.025Z,35.80
2018-08-03T18:07:48.830Z,35.70
2018-08-03T18:12:53.508Z,35.50
2018-08-03T18:17:58.189Z,35.30
2018-08-03T18:23:03.115Z,35.20
2018-08-03T18:28:07.821Z,34.90
2018-08-03T18:33:12.715Z,34.70
2018-08-03T18:38:17.603Z,34.60
2018-08-03T18:43:22.256Z,34.40
2018-08-03T18:48:27.000Z,34.30
2018-08-03T18:53:31.808Z,34.10
2018-08-03T18:58:36.720Z,34.00
2018-08-03T19:03:42.363Z,33.90
2018-08-03T19:08:47.647Z,33.60
2018-08-03T19:13:53.171Z,33.40
2018-08-03T19:18:57.969Z,33.30
2018-08-03T19:24:02.659Z,33.10
2018-08-03T19:29:07.455Z,32.80
2018-08-03T19:34:13.215Z,32.70
2018-08-03T19:39:17.896Z,28.50
2018-08-03T19:44:22.585Z,32.60
2018-08-03T19:49:27.269Z,32.50
2018-08-03T19:54:31.940Z,32.40
2018-08-03T19:59:36.755Z,32.30
2018-08-03T20:04:41.424Z,32.20
2018-08-03T20:09:46.121Z,32.00
2018-08-03T20:14:50.917Z,32.00
2018-08-03T20:19:55.597Z,31.80
2018-08-03T20:25:00.151Z,31.60
2018-08-03T20:30:05.568Z,31.50
2018-08-03T20:35:10.434Z,31.40
2018-08-03T20:40:15.181Z,31.20
2018-08-03T20:45:19.857Z,31.30
2018-08-03T20:50:24.525Z,31.10
2018-08-03T20:55:29.211Z,31.10
2018-08-03T21:00:34.126Z,31.10
2018-08-03T21:05:38.935Z,30.80
2018-08-03T21:10:44.688Z,30.80
2018-08-03T21:15:49.524Z,30.80
2018-08-03T21:20:54.404Z,30.70
2018-08-03T21:25:58.994Z,30.70
2018-08-03T21:31:04.618Z,30.50
2018-08-03T21:36:09.306Z,30.50
2018-08-03T21:41:13.978Z,30.50
2018-08-03T21:46:18.664Z,30.60
2018-08-03T21:51:47.416Z,30.50
2018-08-03T21:56:56.946Z,30.20
2018-08-03T22:02:01.962Z,30.00
2018-08-03T22:07:06.669Z,30.10
2018-08-03T22:12:11.388Z,30.00
2018-08-03T22:17:16.397Z,30.10
2018-08-03T22:22:21.071Z,30.00
2018-08-03T22:27:25.636Z,30.10
2018-08-03T22:32:30.616Z,30.10
2018-08-03T22:37:36.590Z,30.10
2018-08-03T22:42:41.465Z,30.10
2018-08-03T22:47:46.345Z,29.70
2018-08-03T22:52:51.117Z,29.50
2018-08-03T22:57:55.947Z,29.10
2018-08-03T23:03:00.446Z,29.10
2018-08-03T23:08:05.618Z,28.70
2018-08-03T23:13:10.418Z,28.70
2018-08-03T23:18:15.341Z,28.60
2018-08-03T23:23:20.261Z,28.70
2018-08-03T23:28:25.057Z,28.90
2018-08-03T23:33:29.737Z,29.20
2018-08-03T23:38:35.380Z,29.30
2018-08-03T23:43:39.940Z,29.00
2018-08-03T23:48:44.636Z,29.40
2018-08-03T23:53:49.484Z,29.50
2018-08-03T23:58:54.947Z,29.60
